KHUF/HUF METAR and TAF weather

Enter ICAO airport designator
Station Type Date Time Source
KHUF METAR 2020/10/20 17:53 UTC NOAA

KHUF 201753Z 12009KT 10SM OVC015 14/09 A3017 RMK AO2 SLP218 T01390089 10139 20083 58015


Station Type Date Time Source
KHUF Decoded METAR 2020/10/20 17:53 UTC NOAA

TERRE HAUTE INTERNATIONAL -HULMAN FLD, IN, United States (KHUF) 39-27N 087-19W 179M
Oct 20, 2020 - 01:53 PM EDT / 2020.10.20 1753 UTC
Wind: from the ESE (120 degrees) at 10 MPH (9 KT):0
Visibility: 10 mile(s):0
Sky conditions: overcast
Temperature: 57.0 F (13.9 C)
Dew Point: 48.0 F (8.9 C)
Relative Humidity: 71%
Pressure (altimeter): 30.17 in. Hg (1021 hPa)
Pressure tendency: 0.04 inches (1.5 hPa) lower than three hours ago
ob: KHUF 201753Z 12009KT 10SM OVC015 14/09 A3017 RMK AO2 SLP218 T01390089 10139 20083 58015
cycle: 18

Station Type Date Time Source
KHUF TAF 2020/10/20 18:36 UTC NOAA

TAF KHUF 201735Z 2018/2118 11008KT P6SM OVC016
FM202200 14008KT P6SM VCSH OVC014
FM210000 14008KT P6SM VCTS OVC012CB
FM210200 18009KT P6SM VCTS OVC010CB WS020/21035KT
FM210600 22010KT P6SM VCTS OVC018CB WS020/22040KT
FM210900 26009KT 4SM SHRA BR OVC008
FM211200 28005KT P6SM BKN015
FM211600 VRB04KT P6SM BKN045

Example: see airport list